Time,TemperatureF,DewpointF,PressureIn,WindDirection,WindDirectionDegrees,WindSpeedMPH,WindSpeedGustMPH,Humidity,HourlyPrecipIn,Conditions,Clouds,dailyrainin,SoftwareType,DateUTC
2013-04-10 00:00:00,60.1,33.1,29.83,ESE,112,1.3,2.5,36,0.00,,,-99.99,meteobridge,2013-04-09 21:00:00,
2013-04-10 00:05:00,59.9,32.9,29.83,NE,45,1.6,1.6,36,0.00,,,0.00,meteobridge,2013-04-09 21:05:00,
2013-04-10 00:10:00,59.9,32.9,29.83,East,90,1.6,2.7,36,0.00,,,0.00,meteobridge,2013-04-09 21:10:00,
2013-04-10 00:15:00,59.7,32.7,29.83,NNE,22,0.9,2.2,36,0.00,,,0.00,meteobridge,2013-04-09 21:15:00,
2013-04-10 00:20:00,59.7,33.4,29.83,ESE,112,0.0,2.0,37,0.00,,,0.00,meteobridge,2013-04-09 21:20:00,
2013-04-10 00:25:00,59.7,33.4,29.83,SE,135,1.1,2.0,37,0.00,,,0.00,meteobridge,2013-04-09 21:25:00,
2013-04-10 00:30:00,59.5,33.3,29.83,NNW,338,2.5,2.5,37,0.00,,,0.00,meteobridge,2013-04-09 21:30:00,
2013-04-10 00:36:00,59.5,33.3,29.83,NNW,338,2.0,2.5,37,0.00,,,0.00,meteobridge,2013-04-09 21:36:00,
2013-04-10 00:41:00,59.5,33.3,29.83,NNW,338,1.1,2.0,37,0.00,,,0.00,meteobridge,2013-04-09 21:41:00,
2013-04-10 00:47:00,59.5,33.3,29.83,North,0,1.3,1.3,37,0.00,,,0.00,meteobridge,2013-04-09 21:47:00,
2013-04-10 00:53:00,59.4,33.1,29.83,North,0,0.0,1.3,37,0.00,,,0.00,meteobridge,2013-04-09 21:53:00,
2013-04-10 00:58:00,59.2,32.9,29.85,North,0,1.3,2.0,37,0.00,,,0.00,meteobridge,2013-04-09 21:58:00,
2013-04-10 01:03:00,59.2,33.6,29.85,NW,315,0.9,2.2,38,0.00,,,0.00,meteobridge,2013-04-09 22:03:00,
2013-04-10 01:08:00,59.0,33.4,29.85,SE,135,0.0,2.0,38,0.00,,,0.00,meteobridge,2013-04-09 22:08:00,
2013-04-10 01:13:00,59.0,33.4,29.83,WNW,292,1.3,1.3,38,0.00,,,0.00,meteobridge,2013-04-09 22:13:00,
2013-04-10 01:18:00,59.0,34.2,29.83,NNW,338,1.3,2.5,39,0.00,,,0.00,meteobridge,2013-04-09 22:18:00,
2013-04-10 01:24:00,58.8,34.0,29.83,ESE,112,1.1,1.3,39,0.00,,,0.00,meteobridge,2013-04-09 22:24:00,
2013-04-10 01:29:00,58.8,34.5,29.83,ENE,68,0.9,2.5,40,0.00,,,0.00,meteobridge,2013-04-09 22:29:00,
2013-04-10 01:34:00,58.8,35.2,29.83,SSW,202,2.2,2.5,41,0.00,,,0.00,meteobridge,2013-04-09 22:34:00,
2013-04-10 01:39:00,58.6,35.1,29.83,SSW,202,2.0,4.3,41,0.00,,,0.00,meteobridge,2013-04-09 22:39:00,
2013-04-10 01:44:00,58.6,35.1,29.83,NNW,338,0.9,1.6,41,0.00,,,0.00,meteobridge,2013-04-09 22:44:00,
2013-04-10 01:50:00,58.5,34.9,29.83,NE,45,0.0,0.9,41,0.00,,,0.00,meteobridge,2013-04-09 22:50:00,
2013-04-10 01:55:00,58.3,34.7,29.83,NNE,22,0.9,1.1,41,0.00,,,0.00,meteobridge,2013-04-09 22:55:00,
2013-04-10 02:00:00,58.1,34.5,29.83,ESE,112,2.5,2.5,41,0.00,,,0.00,meteobridge,2013-04-09 23:00:00,
2013-04-10 02:05:00,58.1,35.2,29.83,SE,135,1.1,1.1,42,0.00,,,0.00,meteobridge,2013-04-09 23:05:00,
2013-04-10 02:10:00,57.9,35.1,29.83,SSE,158,0.0,2.0,42,0.00,,,0.00,meteobridge,2013-04-09 23:10:00,
2013-04-10 02:15:00,57.9,35.1,29.83,WNW,292,3.1,3.1,42,0.00,,,0.00,meteobridge,2013-04-09 23:15:00,
2013-04-10 02:20:00,58.1,35.8,29.83,NNW,338,1.1,1.6,43,0.00,,,0.00,meteobridge,2013-04-09 23:20:00,
2013-04-10 02:25:00,58.1,35.8,29.83,NNW,338,0.0,1.1,43,0.00,,,0.00,meteobridge,2013-04-09 23:25:00,
2013-04-10 02:30:00,57.7,34.9,29.83,ENE,68,1.6,1.6,42,0.00,,,0.00,meteobridge,2013-04-09 23:30:00,
2013-04-10 02:35:00,57.7,35.4,29.83,SSE,158,1.1,2.5,43,0.00,,,0.00,meteobridge,2013-04-09 23:35:00,
2013-04-10 02:40:00,57.7,36.0,29.80,SSE,158,0.0,2.0,44,0.00,,,0.00,meteobridge,2013-04-09 23:40:00,
2013-04-10 02:45:00,57.6,35.8,29.80,SE,135,2.5,2.5,44,0.00,,,0.00,meteobridge,2013-04-09 23:45:00,
2013-04-10 02:50:00,57.6,36.5,29.80,South,180,2.0,3.4,45,0.00,,,0.00,meteobridge,2013-04-09 23:50:00,
2013-04-10 02:55:00,57.6,36.5,29.80,SSE,158,2.2,2.9,45,0.00,,,0.00,meteobridge,2013-04-09 23:55:00,
2013-04-10 03:01:00,57.6,36.5,29.80,South,180,1.6,2.5,45,0.00,,,0.00,meteobridge,2013-04-10 00:01:00,
2013-04-10 03:07:00,57.6,36.5,29.80,South,180,1.3,1.6,45,0.00,,,0.00,meteobridge,2013-04-10 00:07:00,
2013-04-10 03:12:00,57.6,36.5,29.77,SSE,158,1.3,3.6,45,0.00,,,0.00,meteobridge,2013-04-10 00:12:00,
2013-04-10 03:17:00,57.4,36.3,29.77,SSE,158,0.0,1.1,45,0.00,,,0.00,meteobridge,2013-04-10 00:17:00,
2013-04-10 03:22:00,57.2,36.7,29.77,SSE,158,2.0,3.4,46,0.00,,,0.00,meteobridge,2013-04-10 00:22:00,
2013-04-10 03:27:00,57.2,36.7,29.77,SE,135,1.3,1.3,46,0.00,,,0.00,meteobridge,2013-04-10 00:27:00,
2013-04-10 03:33:00,57.0,36.5,29.77,ESE,112,0.0,0.0,46,0.00,,,0.00,meteobridge,2013-04-10 00:33:00,
2013-04-10 03:38:00,57.0,36.5,29.77,SSE,158,0.0,1.1,46,0.00,,,0.00,meteobridge,2013-04-10 00:38:00,
2013-04-10 03:43:00,56.8,36.3,29.77,SSE,158,0.0,0.0,46,0.00,,,0.00,meteobridge,2013-04-10 00:43:00,
2013-04-10 03:48:00,56.7,36.1,29.77,SSE,158,0.0,0.0,46,0.00,,,0.00,meteobridge,2013-04-10 00:48:00,
2013-04-10 03:54:00,56.7,36.7,29.77,SSE,158,0.0,0.0,47,0.00,,,0.00,meteobridge,2013-04-10 00:54:00,
2013-04-10 03:59:00,56.5,36.5,29.77,SSE,158,1.3,1.6,47,0.00,,,0.00,meteobridge,2013-04-10 00:59:00,
2013-04-10 04:04:00,56.7,36.7,29.77,SSE,158,1.1,1.3,47,0.00,,,0.00,meteobridge,2013-04-10 01:04:00,
2013-04-10 04:09:00,56.5,37.0,29.77,SE,135,0.0,0.0,48,0.00,,,0.00,meteobridge,2013-04-10 01:09:00,
2013-04-10 04:14:00,56.3,36.9,29.77,SSE,158,0.0,0.9,48,0.00,,,0.00,meteobridge,2013-04-10 01:14:00,
2013-04-10 04:20:00,56.1,36.1,29.77,SSE,158,0.0,0.0,47,0.00,,,0.00,meteobridge,2013-04-10 01:20:00,
2013-04-10 04:25:00,55.9,36.5,29.77,SSE,158,1.3,1.3,48,0.00,,,0.00,meteobridge,2013-04-10 01:25:00,
2013-04-10 04:31:00,55.9,36.5,29.77,SSE,158,1.3,2.0,48,0.00,,,0.00,meteobridge,2013-04-10 01:31:00,
2013-04-10 04:36:00,55.9,36.5,29.77,SSE,158,0.0,2.0,48,0.00,,,0.00,meteobridge,2013-04-10 01:36:00,
2013-04-10 04:41:00,55.8,36.3,29.80,SSE,158,0.0,1.1,48,0.00,,,0.00,meteobridge,2013-04-10 01:41:00,
2013-04-10 04:47:00,55.8,36.9,29.80,SE,135,1.6,1.6,49,0.00,,,0.00,meteobridge,2013-04-10 01:47:00,
2013-04-10 04:52:00,55.9,37.6,29.80,SSE,158,0.0,1.6,50,0.00,,,0.00,meteobridge,2013-04-10 01:52:00,
2013-04-10 04:57:00,55.9,37.6,29.77,SSE,158,0.9,2.9,50,0.00,,,0.00,meteobridge,2013-04-10 01:57:00,
2013-04-10 05:02:00,56.1,37.8,29.77,South,180,1.1,2.0,50,0.00,,,0.00,meteobridge,2013-04-10 02:02:00,
2013-04-10 05:07:00,56.1,37.8,29.77,South,180,0.0,0.0,50,0.00,,,0.00,meteobridge,2013-04-10 02:07:00,
2013-04-10 05:12:00,56.1,37.8,29.77,South,180,0.0,0.0,50,0.00,,,0.00,meteobridge,2013-04-10 02:12:00,
2013-04-10 05:17:00,55.8,37.4,29.77,South,180,1.6,2.2,50,0.00,,,0.00,meteobridge,2013-04-10 02:17:00,
2013-04-10 05:22:00,55.8,37.4,29.77,South,180,0.0,1.1,50,0.00,,,0.00,meteobridge,2013-04-10 02:22:00,
2013-04-10 05:27:00,55.8,37.9,29.77,SSE,158,2.5,2.5,51,0.00,,,0.00,meteobridge,2013-04-10 02:27:00,
2013-04-10 05:32:00,55.8,37.9,29.77,SSE,158,0.0,1.6,51,0.00,,,0.00,meteobridge,2013-04-10 02:32:00,
2013-04-10 05:37:00,55.6,37.8,29.77,SSE,158,0.9,1.6,51,0.00,,,0.00,meteobridge,2013-04-10 02:37:00,
2013-04-10 05:42:00,55.8,38.5,29.77,SSE,158,0.9,2.9,52,0.00,,,0.00,meteobridge,2013-04-10 02:42:00,
2013-04-10 05:47:00,55.8,38.5,29.77,SSE,158,1.3,2.7,52,0.00,,,0.00,meteobridge,2013-04-10 02:47:00,
2013-04-10 05:52:00,55.8,38.5,29.77,SSE,158,2.5,2.7,52,0.00,,,0.00,meteobridge,2013-04-10 02:52:00,
2013-04-10 05:57:00,55.8,38.5,29.77,South,180,0.0,2.7,52,0.00,,,0.00,meteobridge,2013-04-10 02:57:00,
2013-04-10 06:03:00,55.8,38.8,29.77,SSE,158,0.0,1.3,53,0.00,,,0.00,meteobridge,2013-04-10 03:03:00,
2013-04-10 06:09:00,55.8,38.8,29.77,ESE,112,1.1,1.1,53,0.00,,,0.00,meteobridge,2013-04-10 03:09:00,
2013-04-10 06:14:00,55.4,38.1,29.77,NE,45,1.1,1.3,52,0.00,,,0.00,meteobridge,2013-04-10 03:14:00,
2013-04-10 06:20:00,55.2,38.5,29.77,NNE,22,2.0,2.0,53,0.00,,,0.00,meteobridge,2013-04-10 03:20:00,
2013-04-10 06:26:00,54.9,38.1,29.77,NNE,22,0.0,0.0,53,0.00,,,0.00,meteobridge,2013-04-10 03:26:00,
2013-04-10 06:31:00,54.5,37.8,29.77,North,0,1.3,1.3,53,0.00,,,0.00,meteobridge,2013-04-10 03:31:00,
2013-04-10 06:36:00,54.3,37.6,29.77,North,0,1.6,2.5,53,0.00,,,0.00,meteobridge,2013-04-10 03:36:00,
2013-04-10 06:41:00,54.1,37.9,29.77,NNE,22,1.1,1.6,54,0.00,,,0.00,meteobridge,2013-04-10 03:41:00,
2013-04-10 06:46:00,54.0,37.8,29.77,East,90,0.0,2.0,54,0.00,,,0.00,meteobridge,2013-04-10 03:46:00,
2013-04-10 06:51:00,54.0,38.1,29.77,ENE,68,0.9,1.6,55,0.00,,,0.00,meteobridge,2013-04-10 03:51:00,
2013-04-10 06:57:00,54.0,38.1,29.77,SE,135,0.9,1.3,55,0.00,,,0.00,meteobridge,2013-04-10 03:57:00,
2013-04-10 07:00:00,54.0,38.1,29.77,ESE,112,1.3,1.3,55,0.00,,,0.00,meteobridge,2013-04-10 04:00:00,
2013-04-10 07:01:00,54.0,38.1,29.77,ESE,112,1.3,1.3,55,0.00,,,0.00,meteobridge,2013-04-10 04:01:00,
2013-04-10 07:06:00,54.1,38.8,29.77,ENE,68,0.0,1.1,56,0.00,,,0.00,meteobridge,2013-04-10 04:06:00,
2013-04-10 07:11:00,54.3,38.5,29.77,NNE,22,1.1,2.0,55,0.00,,,0.00,meteobridge,2013-04-10 04:11:00,
2013-04-10 07:16:00,54.3,38.5,29.77,North,0,1.1,1.1,55,0.00,,,0.00,meteobridge,2013-04-10 04:16:00,
2013-04-10 07:21:00,54.3,38.5,29.77,NNE,22,0.0,1.3,55,0.00,,,0.00,meteobridge,2013-04-10 04:21:00,
2013-04-10 07:28:00,54.5,38.7,29.80,ENE,68,0.0,0.9,55,0.00,,,0.00,meteobridge,2013-04-10 04:28:00,
2013-04-10 07:33:00,56.7,41.2,29.80,ESE,112,0.0,1.3,56,0.00,,,0.00,meteobridge,2013-04-10 04:33:00,
2013-04-10 07:38:00,58.1,42.4,29.80,SE,135,0.0,0.0,56,0.00,,,0.00,meteobridge,2013-04-10 04:38:00,
2013-04-10 07:43:00,59.4,42.3,29.80,East,90,2.0,2.7,53,0.00,,,0.00,meteobridge,2013-04-10 04:43:00,
2013-04-10 07:48:00,60.1,40.3,29.80,NNE,22,2.0,2.0,48,0.00,,,0.00,meteobridge,2013-04-10 04:48:00,
2013-04-10 07:53:00,60.8,40.5,29.80,ENE,68,1.1,2.2,47,0.00,,,0.00,meteobridge,2013-04-10 04:53:00,
2013-04-10 07:58:00,62.2,40.1,29.77,NNE,22,2.2,2.5,44,0.00,,,0.00,meteobridge,2013-04-10 04:58:00,
2013-04-10 08:04:00,63.1,39.7,29.77,ENE,68,1.1,2.2,42,0.00,,,0.00,meteobridge,2013-04-10 05:04:00,
2013-04-10 08:09:00,64.4,39.6,29.77,East,90,0.0,1.6,40,0.00,,,0.00,meteobridge,2013-04-10 05:09:00,
2013-04-10 08:14:00,65.1,38.3,29.77,ENE,68,0.0,0.0,37,0.00,,,0.00,meteobridge,2013-04-10 05:14:00,
2013-04-10 08:19:00,66.2,38.5,29.77,NE,45,0.0,2.0,36,0.00,,,0.00,meteobridge,2013-04-10 05:19:00,
2013-04-10 08:24:00,67.5,38.1,29.80,East,90,0.0,1.3,34,0.00,,,0.00,meteobridge,2013-04-10 05:24:00,
2013-04-10 08:30:00,68.7,38.5,29.80,East,90,1.3,1.3,33,0.00,,,0.00,meteobridge,2013-04-10 05:30:00,
2013-04-10 08:35:00,69.6,38.5,29.80,East,90,1.3,2.2,32,0.00,,,0.00,meteobridge,2013-04-10 05:35:00,
2013-04-10 08:40:00,69.3,35.6,29.80,WSW,248,0.9,1.3,29,0.00,,,0.00,meteobridge,2013-04-10 05:40:00,
2013-04-10 08:45:00,70.0,35.4,29.80,SSE,158,1.1,1.3,28,0.00,,,0.00,meteobridge,2013-04-10 05:45:00,
2013-04-10 08:50:00,70.5,34.9,29.80,East,90,1.1,1.6,27,0.00,,,0.00,meteobridge,2013-04-10 05:50:00,
2013-04-10 08:55:00,70.5,34.0,29.80,West,270,1.3,2.2,26,0.00,,,0.00,meteobridge,2013-04-10 05:55:00,
2013-04-10 09:00:00,70.3,32.9,29.80,NNE,22,0.9,1.6,25,0.00,,,0.00,meteobridge,2013-04-10 06:00:00,
2013-04-10 09:05:00,70.9,33.4,29.80,SSE,158,0.9,3.6,25,0.00,,,0.00,meteobridge,2013-04-10 06:05:00,
2013-04-10 09:10:00,70.5,32.0,29.80,WNW,292,1.6,2.7,24,0.00,,,0.00,meteobridge,2013-04-10 06:10:00,
2013-04-10 09:15:00,71.4,32.7,29.80,SE,135,3.1,3.6,24,0.00,,,0.00,meteobridge,2013-04-10 06:15:00,
2013-04-10 09:20:00,71.2,31.6,29.80,WNW,292,1.6,1.6,23,0.00,,,0.00,meteobridge,2013-04-10 06:20:00,
2013-04-10 09:25:00,71.8,30.9,29.80,South,180,1.1,2.7,22,0.00,,,0.00,meteobridge,2013-04-10 06:25:00,
2013-04-10 09:30:00,72.0,31.1,29.80,SE,135,1.1,2.0,22,0.00,,,0.00,meteobridge,2013-04-10 06:30:00,
2013-04-10 09:35:00,72.5,31.5,29.80,ESE,112,0.9,2.0,22,0.00,,,0.00,meteobridge,2013-04-10 06:35:00,
2013-04-10 09:40:00,72.9,31.8,29.80,East,90,1.3,2.0,22,0.00,,,0.00,meteobridge,2013-04-10 06:40:00,
2013-04-10 09:45:00,73.4,31.1,29.80,NNW,338,1.1,2.0,21,0.00,,,0.00,meteobridge,2013-04-10 06:45:00,
2013-04-10 09:50:00,73.2,32.2,29.80,SE,135,3.4,4.3,22,0.00,,,0.00,meteobridge,2013-04-10 06:50:00,
2013-04-10 09:55:00,73.2,32.2,29.80,WNW,292,0.0,2.0,22,0.00,,,0.00,meteobridge,2013-04-10 06:55:00,
2013-04-10 10:00:00,73.2,32.2,29.80,SSE,158,3.6,3.8,22,0.00,,,0.00,meteobridge,2013-04-10 07:00:00,
2013-04-10 10:05:00,73.0,32.0,29.80,NNE,22,1.6,1.6,22,0.00,,,0.00,meteobridge,2013-04-10 07:05:00,
2013-04-10 10:10:00,73.4,31.1,29.83,South,180,1.3,2.9,21,0.00,,,0.00,meteobridge,2013-04-10 07:10:00,
2013-04-10 10:15:00,73.0,32.0,29.83,East,90,2.0,3.4,22,0.00,,,0.00,meteobridge,2013-04-10 07:15:00,
2013-04-10 10:21:00,72.1,31.3,29.83,SE,135,1.6,3.6,22,0.00,,,0.00,meteobridge,2013-04-10 07:21:00,
2013-04-10 10:26:00,72.5,31.5,29.83,SW,225,1.1,3.1,22,0.00,,,0.00,meteobridge,2013-04-10 07:26:00,
2013-04-10 10:31:00,72.3,31.5,29.83,NNW,338,1.1,4.0,22,0.00,,,0.00,meteobridge,2013-04-10 07:31:00,
2013-04-10 10:37:00,73.0,32.0,29.83,NNE,22,2.0,2.0,22,0.00,,,0.00,meteobridge,2013-04-10 07:37:00,
2013-04-10 10:42:00,72.5,31.5,29.83,SSE,158,2.0,2.7,22,0.00,,,0.00,meteobridge,2013-04-10 07:42:00,
2013-04-10 10:47:00,72.3,31.5,29.83,NE,45,3.4,3.4,22,0.00,,,0.00,meteobridge,2013-04-10 07:47:00,
2013-04-10 10:52:00,72.1,31.3,29.83,East,90,2.9,4.9,22,0.00,,,0.00,meteobridge,2013-04-10 07:52:00,
2013-04-10 10:58:00,72.9,31.8,29.83,South,180,3.4,3.4,22,0.00,,,0.00,meteobridge,2013-04-10 07:58:00,
2013-04-10 11:03:00,73.0,32.0,29.83,WNW,292,1.6,2.9,22,0.00,,,0.00,meteobridge,2013-04-10 08:03:00,
2013-04-10 11:08:00,73.0,32.0,29.83,South,180,3.8,6.3,22,0.00,,,0.00,meteobridge,2013-04-10 08:08:00,
2013-04-10 11:13:00,73.6,31.3,29.83,NNE,22,2.2,2.5,21,0.00,,,0.00,meteobridge,2013-04-10 08:13:00,
2013-04-10 11:18:00,73.6,31.3,29.83,South,180,2.0,2.7,21,0.00,,,0.00,meteobridge,2013-04-10 08:18:00,
2013-04-10 11:23:00,73.0,32.0,29.83,SSE,158,3.6,4.3,22,0.00,,,0.00,meteobridge,2013-04-10 08:23:00,
2013-04-10 11:28:00,73.8,31.5,29.80,SSE,158,1.3,3.6,21,0.00,,,0.00,meteobridge,2013-04-10 08:28:00,
2013-04-10 11:33:00,74.5,32.0,29.80,West,270,1.3,3.6,21,0.00,,,0.00,meteobridge,2013-04-10 08:33:00,
2013-04-10 11:38:00,75.0,32.5,29.80,SE,135,2.9,3.4,21,0.00,,,0.00,meteobridge,2013-04-10 08:38:00,
2013-04-10 11:43:00,75.7,33.1,29.80,SSE,158,3.4,3.4,21,0.00,,,0.00,meteobridge,2013-04-10 08:43:00,
2013-04-10 11:48:00,76.1,33.4,29.80,SE,135,0.9,3.6,21,0.00,,,0.00,meteobridge,2013-04-10 08:48:00,
2013-04-10 11:53:00,75.4,31.6,29.80,North,0,2.0,2.0,20,0.00,,,0.00,meteobridge,2013-04-10 08:53:00,
2013-04-10 11:58:00,75.0,32.5,29.80,SSE,158,3.4,4.3,21,0.00,,,0.00,meteobridge,2013-04-10 08:58:00,
2013-04-10 12:03:00,74.7,32.2,29.80,South,180,3.8,6.3,21,0.00,,,0.00,meteobridge,2013-04-10 09:03:00,
2013-04-10 12:08:00,75.0,32.5,29.80,North,0,2.0,3.4,21,0.00,,,0.00,meteobridge,2013-04-10 09:08:00,
2013-04-10 12:13:00,75.2,31.5,29.77,North,0,2.7,3.4,20,0.00,,,0.00,meteobridge,2013-04-10 09:13:00,
2013-04-10 12:18:00,74.5,32.0,29.77,ESE,112,3.1,3.4,21,0.00,,,0.00,meteobridge,2013-04-10 09:18:00,
2013-04-10 12:23:00,75.0,32.5,29.77,SSE,158,3.4,3.4,21,0.00,,,0.00,meteobridge,2013-04-10 09:23:00,
2013-04-10 12:28:00,75.7,31.8,29.77,SE,135,2.5,2.5,20,0.00,,,0.00,meteobridge,2013-04-10 09:28:00,
2013-04-10 12:34:00,75.9,29.5,29.77,South,180,2.7,5.8,18,0.00,,,0.00,meteobridge,2013-04-10 09:34:00,
2013-04-10 12:39:00,76.1,29.7,29.77,ENE,68,3.4,3.4,18,0.00,,,0.00,meteobridge,2013-04-10 09:39:00,
2013-04-10 12:44:00,75.6,29.1,29.77,East,90,1.1,2.7,18,0.00,,,0.00,meteobridge,2013-04-10 09:44:00,
2013-04-10 12:49:00,76.6,30.0,29.77,SE,135,1.6,3.4,18,0.00,,,0.00,meteobridge,2013-04-10 09:49:00,
2013-04-10 12:54:00,76.3,25.3,29.77,SE,135,2.7,3.6,15,0.00,,,0.00,meteobridge,2013-04-10 09:54:00,
2013-04-10 12:59:00,75.6,24.8,29.77,SSE,158,3.1,4.3,15,0.00,,,0.00,meteobridge,2013-04-10 09:59:00,
2013-04-10 13:04:00,77.4,26.2,29.77,SE,135,2.0,2.2,15,0.00,,,0.00,meteobridge,2013-04-10 10:04:00,
2013-04-10 13:10:00,76.5,25.5,29.77,SE,135,3.1,3.1,15,0.00,,,0.00,meteobridge,2013-04-10 10:10:00,
2013-04-10 13:15:00,75.7,24.8,29.77,SSE,158,3.8,3.8,15,0.00,,,0.00,meteobridge,2013-04-10 10:15:00,
2013-04-10 13:20:00,75.7,24.8,29.77,NNE,22,2.9,3.6,15,0.00,,,0.00,meteobridge,2013-04-10 10:20:00,
2013-04-10 13:25:00,76.1,25.2,29.77,SE,135,1.3,3.8,15,0.00,,,0.00,meteobridge,2013-04-10 10:25:00,
2013-04-10 13:30:00,76.1,25.2,29.77,West,270,3.8,3.8,15,0.00,,,0.00,meteobridge,2013-04-10 10:30:00,
2013-04-10 13:35:00,75.6,24.8,29.77,SE,135,3.1,3.1,15,0.00,,,0.00,meteobridge,2013-04-10 10:35:00,
2013-04-10 13:40:00,75.7,24.8,29.77,ESE,112,2.2,4.0,15,0.00,,,0.00,meteobridge,2013-04-10 10:40:00,
2013-04-10 13:45:00,76.1,25.2,29.77,NNE,22,3.1,4.0,15,0.00,,,0.00,meteobridge,2013-04-10 10:45:00,
2013-04-10 13:50:00,75.6,24.8,29.77,SW,225,4.5,4.7,15,0.00,,,0.00,meteobridge,2013-04-10 10:50:00,
2013-04-10 13:56:00,76.1,25.2,29.77,ENE,68,1.6,4.0,15,0.00,,,0.00,meteobridge,2013-04-10 10:56:00,
2013-04-10 14:01:00,76.8,25.7,29.77,NE,45,1.1,3.6,15,0.00,,,0.00,meteobridge,2013-04-10 11:01:00,
2013-04-10 14:06:00,76.5,25.5,29.77,North,0,2.5,3.8,15,0.00,,,0.00,meteobridge,2013-04-10 11:06:00,
2013-04-10 14:11:00,76.8,25.7,29.77,North,0,2.2,3.6,15,0.00,,,0.00,meteobridge,2013-04-10 11:11:00,
2013-04-10 14:16:00,77.0,25.9,29.77,North,0,1.6,3.8,15,0.00,,,0.00,meteobridge,2013-04-10 11:16:00,
2013-04-10 14:21:00,77.2,26.1,29.77,SE,135,2.5,5.4,15,0.00,,,0.00,meteobridge,2013-04-10 11:21:00,
2013-04-10 14:26:00,76.8,25.7,29.74,SE,135,3.1,3.4,15,0.00,,,0.00,meteobridge,2013-04-10 11:26:00,
2013-04-10 14:31:00,76.6,25.5,29.74,East,90,2.7,5.4,15,0.00,,,0.00,meteobridge,2013-04-10 11:31:00,
2013-04-10 14:37:00,75.9,29.5,29.74,SE,135,2.5,3.6,18,0.00,,,0.00,meteobridge,2013-04-10 11:37:00,
2013-04-10 14:42:00,75.4,28.9,29.77,WSW,248,3.1,3.1,18,0.00,,,0.00,meteobridge,2013-04-10 11:42:00,
2013-04-10 14:47:00,75.6,29.1,29.77,South,180,6.5,6.5,18,0.00,,,0.00,meteobridge,2013-04-10 11:47:00,
2013-04-10 14:52:00,74.5,32.0,29.77,East,90,3.4,6.3,21,0.00,,,0.00,meteobridge,2013-04-10 11:52:00,
2013-04-10 14:57:00,73.8,31.5,29.77,East,90,2.5,5.6,21,0.00,,,0.00,meteobridge,2013-04-10 11:57:00,
2013-04-10 15:02:00,73.8,31.5,29.77,WNW,292,1.6,3.4,21,0.00,,,0.00,meteobridge,2013-04-10 12:02:00,
2013-04-10 15:07:00,73.8,31.5,29.77,SSW,202,3.1,7.8,21,0.00,,,0.00,meteobridge,2013-04-10 12:07:00,
2013-04-10 15:12:00,73.6,31.3,29.77,ESE,112,3.4,4.7,21,0.00,,,0.00,meteobridge,2013-04-10 12:12:00,
2013-04-10 15:17:00,73.6,31.3,29.77,SW,225,3.6,4.3,21,0.00,,,0.00,meteobridge,2013-04-10 12:17:00,
2013-04-10 15:22:00,73.4,31.1,29.77,SSE,158,2.0,8.1,21,0.00,,,0.00,meteobridge,2013-04-10 12:22:00,
2013-04-10 15:27:00,72.7,31.6,29.77,SE,135,7.2,7.2,22,0.00,,,0.00,meteobridge,2013-04-10 12:27:00,
2013-04-10 15:32:00,73.2,32.2,29.77,East,90,4.0,5.6,22,0.00,,,0.00,meteobridge,2013-04-10 12:32:00,
2013-04-10 15:37:00,73.0,32.0,29.77,South,180,7.2,7.2,22,0.00,,,0.00,meteobridge,2013-04-10 12:37:00,
2013-04-10 15:42:00,73.6,31.3,29.77,South,180,8.5,8.5,21,0.00,,,0.00,meteobridge,2013-04-10 12:42:00,
2013-04-10 15:47:00,72.3,30.2,29.77,SSE,158,5.4,6.5,21,0.00,,,0.00,meteobridge,2013-04-10 12:47:00,
2013-04-10 15:52:00,72.1,30.0,29.77,NE,45,2.9,6.9,21,0.00,,,0.00,meteobridge,2013-04-10 12:52:00,
2013-04-10 15:57:00,72.9,30.7,29.77,East,90,2.9,4.3,21,0.00,,,0.00,meteobridge,2013-04-10 12:57:00,
2013-04-10 16:02:00,72.9,28.2,29.77,NNE,22,2.7,4.0,19,0.00,,,0.00,meteobridge,2013-04-10 13:02:00,
2013-04-10 16:08:00,73.0,28.4,29.77,South,180,2.7,5.4,19,0.00,,,0.00,meteobridge,2013-04-10 13:08:00,
2013-04-10 16:13:00,73.6,27.5,29.74,ENE,68,2.9,2.9,18,0.00,,,0.00,meteobridge,2013-04-10 13:13:00,
2013-04-10 16:18:00,73.2,28.6,29.74,South,180,2.0,3.6,19,0.00,,,0.00,meteobridge,2013-04-10 13:18:00,
2013-04-10 16:23:00,72.9,28.2,29.74,South,180,4.0,7.2,19,0.00,,,0.00,meteobridge,2013-04-10 13:23:00,
2013-04-10 16:28:00,72.5,30.4,29.74,ESE,112,4.5,6.0,21,0.00,,,0.00,meteobridge,2013-04-10 13:28:00,
2013-04-10 16:33:00,73.2,30.9,29.74,SW,225,5.6,5.6,21,0.00,,,0.00,meteobridge,2013-04-10 13:33:00,
2013-04-10 16:38:00,72.7,30.6,29.74,NE,45,1.3,3.4,21,0.00,,,0.00,meteobridge,2013-04-10 13:38:00,
2013-04-10 16:43:00,72.7,30.6,29.74,South,180,4.0,4.0,21,0.00,,,0.00,meteobridge,2013-04-10 13:43:00,
2013-04-10 16:48:00,72.3,30.2,29.74,SE,135,3.1,3.4,21,0.00,,,0.00,meteobridge,2013-04-10 13:48:00,
2013-04-10 16:53:00,73.0,30.9,29.74,SE,135,1.6,5.6,21,0.00,,,0.00,meteobridge,2013-04-10 13:53:00,
2013-04-10 16:58:00,72.5,30.4,29.74,SE,135,4.0,4.0,21,0.00,,,0.00,meteobridge,2013-04-10 13:58:00,
2013-04-10 17:04:00,72.3,30.2,29.74,SE,135,4.9,6.5,21,0.00,,,0.00,meteobridge,2013-04-10 14:04:00,
2013-04-10 17:09:00,71.8,29.8,29.74,SE,135,2.0,3.4,21,0.00,,,0.00,meteobridge,2013-04-10 14:09:00,
2013-04-10 17:14:00,71.6,29.7,29.74,South,180,2.7,4.7,21,0.00,,,0.00,meteobridge,2013-04-10 14:14:00,
2013-04-10 17:19:00,71.4,30.6,29.74,NE,45,2.9,2.9,22,0.00,,,0.00,meteobridge,2013-04-10 14:19:00,
2013-04-10 17:24:00,71.2,30.6,29.74,SSW,202,1.3,3.8,22,0.00,,,0.00,meteobridge,2013-04-10 14:24:00,
2013-04-10 17:29:00,70.7,30.0,29.74,SE,135,5.8,7.4,22,0.00,,,0.00,meteobridge,2013-04-10 14:29:00,
2013-04-10 17:34:00,70.2,29.7,29.74,WNW,292,2.7,5.4,22,0.00,,,0.00,meteobridge,2013-04-10 14:34:00,
2013-04-10 17:39:00,70.2,29.7,29.74,SW,225,5.8,5.8,22,0.00,,,0.00,meteobridge,2013-04-10 14:39:00,
2013-04-10 17:44:00,69.8,29.3,29.74,SSW,202,3.1,12.3,22,0.00,,,0.00,meteobridge,2013-04-10 14:44:00,
2013-04-10 17:49:00,69.3,28.8,29.74,South,180,4.9,5.6,22,0.00,,,0.00,meteobridge,2013-04-10 14:49:00,
2013-04-10 17:54:00,69.1,28.8,29.74,SSE,158,2.9,7.4,22,0.00,,,0.00,meteobridge,2013-04-10 14:54:00,
2013-04-10 17:59:00,68.9,28.6,29.74,SSE,158,2.9,4.0,22,0.00,,,0.00,meteobridge,2013-04-10 14:59:00,
2013-04-10 18:04:00,68.5,28.2,29.74,East,90,4.3,4.3,22,0.00,,,0.00,meteobridge,2013-04-10 15:04:00,
2013-04-10 18:10:00,67.8,28.8,29.74,North,0,2.9,4.0,23,0.00,,,0.00,meteobridge,2013-04-10 15:10:00,
2013-04-10 18:15:00,67.1,28.0,29.77,East,90,3.1,7.6,23,0.00,,,0.00,meteobridge,2013-04-10 15:15:00,
2013-04-10 18:20:00,66.7,28.9,29.77,SE,135,2.7,4.3,24,0.00,,,0.00,meteobridge,2013-04-10 15:20:00,
2013-04-10 18:25:00,66.6,27.7,29.74,South,180,3.1,5.8,23,0.00,,,0.00,meteobridge,2013-04-10 15:25:00,
2013-04-10 18:30:00,66.6,28.8,29.74,SSE,158,5.4,5.8,24,0.00,,,0.00,meteobridge,2013-04-10 15:30:00,
2013-04-10 18:35:00,66.2,27.3,29.74,SSE,158,4.9,10.1,23,0.00,,,0.00,meteobridge,2013-04-10 15:35:00,
2013-04-10 18:40:00,66.0,28.2,29.74,East,90,2.0,6.0,24,0.00,,,0.00,meteobridge,2013-04-10 15:40:00,
2013-04-10 18:45:00,66.2,27.3,29.74,South,180,2.0,6.0,23,0.00,,,0.00,meteobridge,2013-04-10 15:45:00,
2013-04-10 18:50:00,66.2,28.4,29.74,SSE,158,3.6,4.9,24,0.00,,,0.00,meteobridge,2013-04-10 15:50:00,
2013-04-10 18:55:00,65.8,28.0,29.74,SSE,158,7.8,7.8,24,0.00,,,0.00,meteobridge,2013-04-10 15:55:00,
2013-04-10 19:00:00,65.8,27.1,29.74,SSE,158,4.3,6.0,23,0.00,,,0.00,meteobridge,2013-04-10 16:00:00,
2013-04-10 19:05:00,65.8,27.1,29.74,ENE,68,5.4,5.4,23,0.00,,,0.00,meteobridge,2013-04-10 16:05:00,
2013-04-10 19:10:00,65.7,27.9,29.74,East,90,3.4,5.6,24,0.00,,,0.00,meteobridge,2013-04-10 16:10:00,
2013-04-10 19:15:00,65.5,27.9,29.74,South,180,2.2,4.7,24,0.00,,,0.00,meteobridge,2013-04-10 16:15:00,
2013-04-10 19:20:00,65.5,28.8,29.74,West,270,1.3,2.7,25,0.00,,,0.00,meteobridge,2013-04-10 16:20:00,
2013-04-10 19:25:00,65.5,28.8,29.74,WNW,292,2.2,5.6,25,0.00,,,0.00,meteobridge,2013-04-10 16:25:00,
2013-04-10 19:30:00,65.3,30.6,29.74,SSE,158,1.6,4.3,27,0.00,,,0.00,meteobridge,2013-04-10 16:30:00,
2013-04-10 19:35:00,65.1,30.4,29.74,SSE,158,1.6,4.0,27,0.00,,,0.00,meteobridge,2013-04-10 16:35:00,
2013-04-10 19:42:00,65.1,31.3,29.77,SW,225,2.9,-999.0,28,0.00,,,0.00,meteobridge,2013-04-10 16:42:00,
2013-04-10 19:48:00,64.8,30.9,29.77,NW,315,2.0,-999.0,28,0.00,,,0.00,meteobridge,2013-04-10 16:48:00,
2013-04-10 19:53:00,64.4,29.7,29.77,WSW,248,1.1,1.1,27,0.00,,,0.00,meteobridge,2013-04-10 16:53:00,
2013-04-10 19:58:00,64.2,30.6,29.77,West,270,0.0,1.3,28,0.00,,,0.00,meteobridge,2013-04-10 16:58:00,
2013-04-10 20:03:00,64.0,30.4,29.77,SSW,202,1.3,1.3,28,0.00,,,0.00,meteobridge,2013-04-10 17:03:00,
2013-04-10 20:08:00,63.9,32.7,29.77,WNW,292,2.5,2.9,31,0.00,,,0.00,meteobridge,2013-04-10 17:08:00,
2013-04-10 20:13:00,63.5,34.0,29.77,SSW,202,5.6,5.6,33,0.00,,,0.00,meteobridge,2013-04-10 17:13:00,
2013-04-10 20:18:00,63.3,33.8,29.77,WSW,248,2.7,2.7,33,0.00,,,0.00,meteobridge,2013-04-10 17:18:00,
2013-04-10 20:23:00,63.1,34.3,29.77,ESE,112,2.9,2.9,34,0.00,,,0.00,meteobridge,2013-04-10 17:23:00,
2013-04-10 20:28:00,63.1,34.3,29.77,SSE,158,1.3,3.4,34,0.00,,,0.00,meteobridge,2013-04-10 17:28:00,
2013-04-10 20:33:00,63.0,34.9,29.77,SSE,158,1.6,2.9,35,0.00,,,0.00,meteobridge,2013-04-10 17:33:00,
2013-04-10 20:38:00,62.6,34.5,29.77,South,180,1.3,2.9,35,0.00,,,0.00,meteobridge,2013-04-10 17:38:00,
2013-04-10 20:43:00,62.6,33.8,29.77,SSE,158,1.6,2.9,34,0.00,,,0.00,meteobridge,2013-04-10 17:43:00,
2013-04-10 20:49:00,62.6,33.8,29.77,SSE,158,2.5,2.9,34,0.00,,,0.00,meteobridge,2013-04-10 17:49:00,
2013-04-10 20:54:00,62.6,33.1,29.77,SSE,158,0.9,2.0,33,0.00,,,0.00,meteobridge,2013-04-10 17:54:00,
2013-04-10 20:59:00,62.8,33.3,29.77,West,270,2.5,2.5,33,0.00,,,0.00,meteobridge,2013-04-10 17:59:00,
2013-04-10 21:04:00,62.6,32.4,29.77,SSE,158,0.0,1.3,32,0.00,,,0.00,meteobridge,2013-04-10 18:04:00,
2013-04-10 21:09:00,62.6,32.4,29.77,NNE,22,0.9,1.6,32,0.00,,,0.00,meteobridge,2013-04-10 18:09:00,
2013-04-10 21:15:00,62.8,31.8,29.77,WNW,292,1.6,1.6,31,0.00,,,0.00,meteobridge,2013-04-10 18:15:00,
2013-04-10 21:20:00,62.6,31.6,29.77,South,180,1.3,2.0,31,0.00,,,0.00,meteobridge,2013-04-10 18:20:00,
2013-04-10 21:26:00,62.4,31.5,29.74,SSW,202,1.1,2.7,31,0.00,,,0.00,meteobridge,2013-04-10 18:26:00,
2013-04-10 21:31:00,62.6,31.6,29.74,WSW,248,1.6,2.2,31,0.00,,,0.00,meteobridge,2013-04-10 18:31:00,
2013-04-10 21:39:00,62.4,31.5,29.74,SE,135,3.4,3.4,31,0.00,,,0.00,meteobridge,2013-04-10 18:39:00,
2013-04-10 21:44:00,62.4,31.5,29.77,SSE,158,0.0,1.3,31,0.00,,,0.00,meteobridge,2013-04-10 18:44:00,
2013-04-10 21:49:00,62.4,31.5,29.77,North,0,1.1,2.0,31,0.00,,,0.00,meteobridge,2013-04-10 18:49:00,
2013-04-10 21:54:00,62.4,31.5,29.77,NNW,338,2.5,2.9,31,0.00,,,0.00,meteobridge,2013-04-10 18:54:00,
2013-04-10 21:59:00,62.2,31.3,29.77,SSE,158,2.5,6.0,31,0.00,,,0.00,meteobridge,2013-04-10 18:59:00,
2013-04-10 22:04:00,62.2,32.0,29.77,SSE,158,2.7,2.7,32,0.00,,,0.00,meteobridge,2013-04-10 19:04:00,
2013-04-10 22:09:00,62.1,31.8,29.77,NW,315,0.0,1.6,32,0.00,,,0.00,meteobridge,2013-04-10 19:09:00,
2013-04-10 22:14:00,61.9,31.8,29.77,NNE,22,0.0,1.6,32,0.00,,,0.00,meteobridge,2013-04-10 19:14:00,
2013-04-10 22:19:00,61.9,32.5,29.77,SSW,202,0.9,4.3,33,0.00,,,0.00,meteobridge,2013-04-10 19:19:00,
2013-04-10 22:24:00,61.9,33.3,29.77,WNW,292,2.2,2.5,34,0.00,,,0.00,meteobridge,2013-04-10 19:24:00,
2013-04-10 22:29:00,61.7,33.1,29.77,North,0,1.6,2.2,34,0.00,,,0.00,meteobridge,2013-04-10 19:29:00,
2013-04-10 22:34:00,61.7,33.1,29.77,WSW,248,1.6,2.7,34,0.00,,,0.00,meteobridge,2013-04-10 19:34:00,
2013-04-10 22:39:00,61.7,33.1,29.77,NW,315,1.1,2.0,34,0.00,,,0.00,meteobridge,2013-04-10 19:39:00,
2013-04-10 22:44:00,61.5,32.9,29.77,NNE,22,1.1,2.2,34,0.00,,,0.00,meteobridge,2013-04-10 19:44:00,
2013-04-10 22:49:00,61.5,33.6,29.77,SE,135,2.0,3.6,35,0.00,,,0.00,meteobridge,2013-04-10 19:49:00,